Terminal Aerodrome Forecast
Issued by NWS

Home | Current Version | Previous Version | Text Only | Print | Product List | Glossary On
Versions: 1 2 3 4 5 6 7 8 9 10 11 12 13 14
000
FTUS45 KRIW 061740
TAFBPI
TAF
KBPI 061740Z 0618/0718 VRB05KT P6SM VCSH SCT040 BKN080
     FM062100 VRB05KT P6SM VCTS BKN040CB
     FM070200 36007KT P6SM VCSH BKN070
     FM070600 VRB05KT P6SM SCT080 SCT200
     FM071000 VRB04KT P6SM FEW090
     FM071600 15005KT P6SM SCT050 SCT090=

USA.gov is the U.S. government's official web portal to all federal, state and local government web resources and services.